Time;durP1;ratioP1;P1;durP2;ratioP2;P2;SDS_P1;SDS_P2;PMS_P1;PMS_P2;Temp;Humidity;BMP_temperature;BMP_pressure;BME280_temperature;BME280_humidity;BME280_pressure;Samples;Min_cycle;Max_cycle;Signal;HPM_P1;HPM_P2
2024/03/22 00:01:50;;;;;;;;;;;2.90;65.40;;;;;;4990265;28;20126;-84
2024/03/22 00:04:16;;;;;;;15.40;8.93;;;2.80;65.00;;;;;;4992230;28;20263;-84
2024/03/22 00:06:43;;;;;;;12.98;9.38;;;2.80;65.10;;;;;;4991634;28;20031;-84
2024/03/22 00:09:10;;;;;;;13.00;8.50;;;2.70;64.90;;;;;;4974507;28;20037;-84
2024/03/22 00:11:36;;;;;;;17.83;8.53;;;2.70;64.80;;;;;;4986777;28;20030;-84
2024/03/22 00:14:03;;;;;;;13.63;8.52;;;2.70;64.60;;;;;;4995471;28;20025;-84
2024/03/22 00:16:29;;;;;;;17.58;9.63;;;2.70;64.60;;;;;;4975950;28;20030;-83
2024/03/22 00:18:54;;;;;;;13.98;8.52;;;2.70;64.70;;;;;;4993354;28;20018;-85
2024/03/22 00:21:22;;;;;;;13.38;9.13;;;2.60;64.80;;;;;;4993225;28;20476;-84
2024/03/22 00:23:47;;;;;;;16.17;8.43;;;2.60;64.80;;;;;;4975017;28;20100;-81
2024/03/22 00:26:13;;;;;;;13.45;9.25;;;2.60;64.80;;;;;;4986869;28;20034;-85
2024/03/22 00:28:39;;;;;;;17.75;9.05;;;2.60;64.80;;;;;;4993694;28;20023;-84
2024/03/22 00:31:05;;;;;;;20.83;9.65;;;2.60;65.00;;;;;;4993097;28;20039;-85
2024/03/22 00:33:31;;;;;;;11.00;8.98;;;2.50;65.10;;;;;;4970848;28;20117;-84
2024/03/22 00:36:00;;;;;;;13.68;8.25;;;2.50;65.10;;;;;;4993026;28;20046;-87
2024/03/22 00:38:26;;;;;;;17.65;8.55;;;2.50;65.00;;;;;;4993562;28;20030;-85
2024/03/22 00:40:51;;;;;;;14.13;8.63;;;2.50;65.00;;;;;;4993487;28;20037;-85
2024/03/22 00:43:17;;;;;;;17.05;10.90;;;2.50;65.00;;;;;;4985108;28;20035;-85
2024/03/22 00:45:43;;;;;;;12.10;8.85;;;2.50;65.00;;;;;;4990805;28;20062;-85
2024/03/22 00:48:09;;;;;;;14.13;8.65;;;2.50;65.10;;;;;;4992769;28;20038;-85
2024/03/22 00:50:35;;;;;;;13.60;7.93;;;2.50;65.10;;;;;;4990817;28;20148;-85
2024/03/22 00:53:02;;;;;;;21.98;9.05;;;2.40;65.30;;;;;;4996122;28;20026;-85
2024/03/22 00:55:28;;;;;;;17.17;9.88;;;2.40;65.40;;;;;;4991428;28;20029;-86
2024/03/22 00:57:54;;;;;;;16.45;8.45;;;2.40;65.60;;;;;;4985446;28;20097;-86
2024/03/22 01:00:20;;;;;;;14.45;9.25;;;2.40;65.80;;;;;;4999141;28;20014;-85
2024/03/22 01:02:46;;;;;;;12.70;8.73;;;2.30;65.80;;;;;;5002569;28;20084;-85
2024/03/22 01:05:12;;;;;;;10.75;7.22;;;2.30;65.90;;;;;;4989338;28;20491;-85
2024/03/22 01:07:37;;;;;;;16.80;9.63;;;2.30;66.00;;;;;;4989107;28;20027;-85
2024/03/22 01:10:04;;;;;;;13.57;8.43;;;2.30;66.10;;;;;;4993287;28;20019;-86
2024/03/22 01:12:31;;;;;;;10.88;8.00;;;2.30;66.20;;;;;;4975557;28;20041;-87
2024/03/22 01:14:57;;;;;;;15.40;10.13;;;2.20;66.20;;;;;;4988490;28;20034;-86
2024/03/22 01:17:24;;;;;;;22.63;10.27;;;2.20;66.40;;;;;;4986152;28;20105;-83
2024/03/22 01:19:49;;;;;;;16.67;8.85;;;2.20;66.40;;;;;;4992272;28;20031;-83
2024/03/22 01:22:17;;;;;;;17.95;9.88;;;2.20;66.60;;;;;;4992918;28;20510;-85
2024/03/22 01:24:44;;;;;;;17.05;9.30;;;2.20;66.70;;;;;;4992993;28;20054;-84
2024/03/22 01:27:10;;;;;;;15.65;9.70;;;2.20;66.80;;;;;;4992702;28;20057;-84
2024/03/22 01:29:36;;;;;;;19.85;9.35;;;2.20;67.10;;;;;;4990801;28;20018;-83
2024/03/22 01:32:02;;;;;;;21.20;10.15;;;2.20;67.80;;;;;;4977887;28;20042;-84
2024/03/22 01:34:28;;;;;;;17.88;8.80;;;2.20;67.80;;;;;;4981981;28;20085;-84
2024/03/22 01:36:54;;;;;;;12.50;8.07;;;2.10;68.10;;;;;;4980055;28;20392;-84
2024/03/22 01:39:23;;;;;;;16.38;10.05;;;2.10;68.30;;;;;;4991882;28;20084;-84
2024/03/22 01:41:49;;;;;;;14.73;8.65;;;2.10;68.50;;;;;;4999110;28;20073;-85
2024/03/22 01:44:15;;;;;;;13.43;9.43;;;2.10;68.50;;;;;;4996214;28;20026;-84
2024/03/22 01:46:42;;;;;;;18.85;10.80;;;2.10;68.80;;;;;;4992660;28;20057;-84
2024/03/22 01:49:13;;;;;;;14.90;9.07;;;2.00;68.90;;;;;;4994985;28;20031;-84
2024/03/22 01:51:43;;;;;;;13.43;9.07;;;2.00;69.20;;;;;;4987484;28;20034;-85
2024/03/22 01:54:10;;;;;;;19.00;10.40;;;1.90;69.40;;;;;;4991163;28;20640;-84
2024/03/22 01:56:39;;;;;;;14.27;9.70;;;1.90;69.60;;;;;;4995883;28;20080;-84
2024/03/22 01:59:06;;;;;;;16.63;9.18;;;1.80;69.70;;;;;;4996033;28;20080;-85
2024/03/22 02:01:32;;;;;;;13.05;10.32;;;1.80;69.90;;;;;;4978529;28;20399;-84
2024/03/22 02:03:58;;;;;;;16.87;9.83;;;1.80;70.10;;;;;;4996074;28;20042;-83
2024/03/22 02:06:24;;;;;;;17.42;8.55;;;1.80;70.10;;;;;;4995049;28;20026;-85
2024/03/22 02:08:49;;;;;;;14.60;8.73;;;1.80;70.30;;;;;;4993707;28;20027;-83
2024/03/22 02:11:15;;;;;;;21.17;9.95;;;1.80;70.40;;;;;;4992671;28;20562;-83
2024/03/22 02:13:42;;;;;;;17.88;9.05;;;1.70;70.40;;;;;;4996801;28;20026;-81
2024/03/22 02:16:09;;;;;;;16.58;9.45;;;1.70;70.50;;;;;;5009363;28;20050;-81
2024/03/22 02:18:34;;;;;;;19.27;9.45;;;1.70;70.70;;;;;;5003079;28;20387;-82
2024/03/22 02:21:00;;;;;;;19.80;11.15;;;1.60;70.80;;;;;;4998003;28;20029;-84
2024/03/22 02:23:34;;;;;;;19.15;10.05;;;1.60;70.90;;;;;;4950244;28;20482;-83
2024/03/22 02:26:00;;;;;;;15.57;9.80;;;1.60;71.10;;;;;;4975152;28;20035;-82
2024/03/22 02:28:26;;;;;;;16.00;9.55;;;1.60;71.30;;;;;;4978980;28;20117;-84
2024/03/22 02:30:52;;;;;;;20.30;11.43;;;1.60;71.40;;;;;;4977452;28;20385;-84
2024/03/22 02:33:18;;;;;;;17.38;10.73;;;1.50;71.50;;;;;;4977704;28;20030;-83
2024/03/22 02:35:46;;;;;;;19.40;10.70;;;1.50;71.60;;;;;;4974633;28;20046;-84
2024/03/22 02:38:12;;;;;;;18.00;9.98;;;1.50;71.70;;;;;;4974974;28;20031;-85
2024/03/22 02:40:37;;;;;;;14.00;10.85;;;1.50;71.80;;;;;;4971999;28;20547;-85
2024/03/22 02:43:03;;;;;;;16.05;9.85;;;1.40;71.70;;;;;;4970618;28;20039;-84
2024/03/22 02:45:31;;;;;;;16.67;9.80;;;1.40;71.80;;;;;;4975503;28;20185;-84
2024/03/22 02:47:57;;;;;;;;;;;1.40;71.90;;;;;;4976454;28;20118;-84
2024/03/22 02:50:22;;;;;;;14.25;8.77;;;1.30;71.50;;;;;;4975360;28;20395;-84
2024/03/22 02:52:49;;;;;;;18.85;10.70;;;1.30;71.70;;;;;;4973665;28;20019;-83
2024/03/22 02:55:15;;;;;;;18.80;10.65;;;1.30;71.90;;;;;;4976139;28;20022;-85
2024/03/22 02:57:40;;;;;;;11.55;8.27;;;1.30;72.10;;;;;;4975045;28;20033;-84
2024/03/22 03:00:06;;;;;;;16.10;9.45;;;1.30;72.20;;;;;;4974951;28;20123;-85
2024/03/22 03:02:32;;;;;;;14.73;8.88;;;1.30;72.40;;;;;;4975048;28;20369;-83
2024/03/22 03:04:58;;;;;;;14.23;10.20;;;1.30;72.50;;;;;;4975069;28;20046;-85
2024/03/22 03:07:25;;;;;;;17.42;10.35;;;1.30;72.50;;;;;;4982137;28;20027;-84
2024/03/22 03:09:50;;;;;;;18.93;10.07;;;1.30;72.60;;;;;;4970287;28;20114;-86
2024/03/22 03:12:16;;;;;;;15.45;9.63;;;1.30;72.70;;;;;;4970523;28;20031;-85
2024/03/22 03:14:42;;;;;;;16.52;9.15;;;1.30;72.80;;;;;;4957423;28;20067;-85
2024/03/22 03:17:08;;;;;;;15.40;9.90;;;1.30;72.90;;;;;;4974715;28;20484;-85
2024/03/22 03:19:34;;;;;;;17.05;9.40;;;1.20;73.00;;;;;;4974753;28;20023;-84
2024/03/22 03:21:59;;;;;;;15.60;10.32;;;1.20;73.20;;;;;;4974422;28;20449;-84
2024/03/22 03:24:26;;;;;;;17.52;10.75;;;1.20;73.50;;;;;;4992316;28;20519;-85
2024/03/22 03:26:51;;;;;;;17.48;10.18;;;1.10;73.60;;;;;;4991311;28;20027;-85
2024/03/22 03:29:17;;;;;;;22.13;11.57;;;1.10;74.40;;;;;;4989649;28;20105;-85
2024/03/22 03:31:43;;;;;;;21.00;10.77;;;1.20;74.00;;;;;;5000941;28;20431;-83
2024/03/22 03:34:09;;;;;;;15.10;9.35;;;1.20;74.00;;;;;;5003349;28;20476;-84
2024/03/22 03:36:34;;;;;;;24.05;11.05;;;1.20;74.00;;;;;;4994938;28;20506;-84
2024/03/22 03:39:04;;;;;;;18.58;11.43;;;1.20;74.00;;;;;;4987233;28;20514;-86
2024/03/22 03:41:29;;;;;;;18.02;10.90;;;1.20;74.10;;;;;;4993034;28;20081;-84
2024/03/22 03:43:55;;;;;;;22.92;12.15;;;1.20;74.10;;;;;;4990723;28;20566;-84
2024/03/22 03:46:24;;;;;;;21.85;10.63;;;1.20;74.00;;;;;;4983818;28;20384;-85
2024/03/22 03:48:50;;;;;;;16.77;10.35;;;1.30;74.10;;;;;;4991342;28;20073;-88
2024/03/22 03:51:15;;;;;;;16.35;10.32;;;1.20;74.10;;;;;;4994837;28;20109;-85
2024/03/22 03:53:41;;;;;;;20.77;13.30;;;1.20;74.10;;;;;;4994179;28;20472;-85
2024/03/22 03:56:07;;;;;;;21.42;12.23;;;1.30;74.30;;;;;;4993919;28;20053;-86
2024/03/22 03:58:33;;;;;;;18.25;12.50;;;1.20;74.40;;;;;;4991936;28;20030;-87
2024/03/22 04:00:58;;;;;;;21.92;11.80;;;1.30;74.60;;;;;;4994746;28;20041;-84
2024/03/22 04:03:24;;;;;;;18.98;12.25;;;1.30;74.60;;;;;;4993875;28;20576;-85
2024/03/22 04:05:57;;;;;;;14.75;11.07;;;1.30;74.60;;;;;;4993786;28;20022;-85
2024/03/22 04:08:24;;;;;;;26.73;11.82;;;1.40;74.80;;;;;;4993924;28;20122;-84
2024/03/22 04:10:56;;;;;;;17.40;12.73;;;1.50;74.90;;;;;;4993590;28;20050;-83
2024/03/22 04:13:26;;;;;;;26.20;12.60;;;1.60;75.30;;;;;;4987381;28;20076;-85
2024/03/22 04:15:53;;;;;;;21.08;10.80;;;1.80;76.00;;;;;;4982685;28;20484;-85
2024/03/22 04:18:19;;;;;;;20.92;11.80;;;2.00;74.60;;;;;;4993175;28;20049;-83
2024/03/22 04:20:58;;;;;;;20.95;11.85;;;2.20;74.10;;;;;;4994580;28;20026;-84
2024/03/22 04:23:24;;;;;;;23.67;13.63;;;2.40;73.70;;;;;;4993859;28;20533;-84
2024/03/22 04:26:00;;;;;;;18.58;12.65;;;2.50;72.80;;;;;;4993148;28;20050;-85
2024/03/22 04:28:30;;;;;;;22.40;12.63;;;2.40;72.80;;;;;;4993517;28;20022;-84
2024/03/22 04:31:04;;;;;;;24.52;13.27;;;2.30;72.80;;;;;;4991880;28;20380;-84
2024/03/22 04:33:31;;;;;;;28.52;15.18;;;2.30;73.00;;;;;;4984117;28;20455;-83
2024/03/22 04:35:57;;;;;;;25.50;13.95;;;2.20;72.90;;;;;;4990824;28;20064;-84
2024/03/22 04:38:24;;;;;;;25.98;14.45;;;2.10;73.00;;;;;;4990437;28;20023;-83
2024/03/22 04:40:50;;;;;;;22.63;12.87;;;2.00;73.40;;;;;;4971528;28;20014;-86
2024/03/22 04:43:16;;;;;;;28.02;15.50;;;1.90;73.70;;;;;;4992059;28;20030;-85
2024/03/22 04:45:43;;;;;;;32.95;15.25;;;1.90;74.10;;;;;;4991369;28;20050;-84
2024/03/22 04:48:09;;;;;;;27.45;14.88;;;1.80;74.20;;;;;;5010002;28;20088;-85
2024/03/22 04:50:35;;;;;;;23.23;13.88;;;1.80;74.40;;;;;;4996665;28;20117;-84
2024/03/22 04:53:02;;;;;;;25.33;13.07;;;1.80;74.60;;;;;;4993895;28;20023;-86
2024/03/22 04:55:28;;;;;;;21.58;13.48;;;1.80;74.80;;;;;;4976349;28;20062;-84
2024/03/22 04:57:53;;;;;;;29.77;15.85;;;1.80;74.90;;;;;;4990823;28;20054;-84
2024/03/22 05:00:19;;;;;;;22.92;15.43;;;1.80;75.00;;;;;;4989231;28;20037;-84
2024/03/22 05:02:47;;;;;;;24.83;15.88;;;1.90;75.20;;;;;;4992460;28;20039;-82
2024/03/22 05:05:13;;;;;;;31.02;16.63;;;1.90;75.30;;;;;;4984405;28;20034;-84
2024/03/22 05:07:39;;;;;;;24.35;14.77;;;1.90;75.20;;;;;;4967330;28;20102;-83
2024/03/22 05:10:09;;;;;;;18.40;13.43;;;1.90;75.20;;;;;;4992325;28;20030;-82
2024/03/22 05:12:35;;;;;;;25.75;14.20;;;1.90;75.20;;;;;;4992854;28;20038;-85
2024/03/22 05:15:03;;;;;;;22.08;15.35;;;1.90;75.20;;;;;;4991891;28;20026;-84
2024/03/22 05:17:31;;;;;;;24.13;16.75;;;1.90;75.40;;;;;;4992995;28;20031;-84
2024/03/22 05:19:58;;;;;;;28.52;16.67;;;2.00;75.60;;;;;;4975374;28;20034;-87
2024/03/22 05:22:24;;;;;;;27.80;16.17;;;2.00;75.60;;;;;;4987339;28;20053;-84
2024/03/22 05:24:50;;;;;;;36.47;17.02;;;2.10;76.20;;;;;;4997224;28;20387;-85
2024/03/22 05:27:19;;;;;;;32.88;16.42;;;2.20;75.70;;;;;;4998310;28;20125;-83
2024/03/22 05:29:45;;;;;;;31.27;16.77;;;2.20;75.50;;;;;;5005536;28;20040;-87
2024/03/22 05:32:11;;;;;;;33.35;17.45;;;2.30;75.40;;;;;;4993734;28;20026;-86
2024/03/22 05:34:39;;;;;;;33.15;16.77;;;2.30;75.30;;;;;;4991039;28;20019;-87
2024/03/22 05:37:06;;;;;;;28.77;17.75;;;2.40;75.30;;;;;;4998608;28;20484;-87
2024/03/22 05:39:31;;;;;;;33.83;18.92;;;2.50;75.30;;;;;;4993958;28;20033;-87
2024/03/22 05:42:00;;;;;;;30.50;16.75;;;2.50;75.00;;;;;;4995664;28;20117;-88
2024/03/22 05:44:26;;;;;;;25.85;18.35;;;2.60;75.00;;;;;;4969290;28;20456;-88
2024/03/22 05:46:52;;;;;;;30.63;17.40;;;2.60;75.00;;;;;;4990618;28;20033;-88
2024/03/22 05:49:18;;;;;;;25.17;17.20;;;2.60;74.90;;;;;;4967129;28;20026;-87
2024/03/22 05:51:44;;;;;;;29.45;18.38;;;2.70;74.80;;;;;;4976668;28;20603;-84
2024/03/22 05:54:10;;;;;;;28.98;17.90;;;2.80;74.70;;;;;;4976080;28;20034;-85
2024/03/22 05:56:39;;;;;;;35.30;18.17;;;2.80;74.80;;;;;;4980875;28;20026;-85
2024/03/22 05:59:04;;;;;;;30.48;18.02;;;2.80;74.60;;;;;;4983924;28;20081;-85
2024/03/22 06:01:31;;;;;;;27.25;17.67;;;2.90;74.40;;;;;;4992484;28;20038;-86
2024/03/22 06:04:00;;;;;;;25.98;17.33;;;2.90;74.30;;;;;;4996554;28;20030;-85
2024/03/22 06:06:26;;;;;;;25.58;17.98;;;2.90;74.40;;;;;;4978914;28;20034;-86
2024/03/22 06:08:56;;;;;;;33.15;19.38;;;2.90;74.60;;;;;;4995140;28;20387;-86
2024/03/22 06:11:23;;;;;;;30.95;17.52;;;2.90;74.60;;;;;;4982370;28;20023;-85
2024/03/22 06:13:48;;;;;;;30.13;19.08;;;2.90;74.50;;;;;;4994512;28;20342;-88
2024/03/22 06:16:15;;;;;;;28.33;16.05;;;3.00;74.60;;;;;;4998085;28;20060;-87
2024/03/22 06:18:40;;;;;;;36.30;17.67;;;3.10;74.40;;;;;;4998344;28;20038;-86
2024/03/22 06:21:06;;;;;;;25.17;18.75;;;3.10;74.20;;;;;;4995530;28;20018;-87
2024/03/22 06:23:33;;;;;;;37.03;18.00;;;3.10;74.10;;;;;;4995081;28;20471;-86
2024/03/22 06:25:59;;;;;;;28.35;18.58;;;3.10;74.10;;;;;;4993211;28;20081;-87
2024/03/22 06:28:28;;;;;;;27.38;18.15;;;3.20;74.10;;;;;;4984782;28;20038;-84
2024/03/22 06:30:54;;;;;;;33.97;19.55;;;3.30;73.90;;;;;;4993351;28;20026;-85
2024/03/22 06:33:20;;;;;;;34.25;19.15;;;3.30;73.80;;;;;;4986167;28;20084;-86
2024/03/22 06:35:47;;;;;;;33.30;20.73;;;3.40;73.80;;;;;;4987956;28;20019;-85
2024/03/22 06:38:13;;;;;;;37.42;19.42;;;3.50;73.80;;;;;;4990512;28;20053;-86
2024/03/22 06:40:39;;;;;;;36.00;19.02;;;3.60;73.70;;;;;;4971501;28;20062;-86
2024/03/22 06:43:04;;;;;;;33.63;20.17;;;3.70;73.40;;;;;;4982206;28;20061;-85
2024/03/22 06:45:30;;;;;;;33.80;21.23;;;3.70;73.20;;;;;;4990779;28;20450;-86
2024/03/22 06:47:56;;;;;;;30.58;20.42;;;3.80;73.20;;;;;;4995043;28;20030;-87
2024/03/22 06:50:25;;;;;;;38.55;22.55;;;3.90;73.10;;;;;;4974418;28;20026;-94
2024/03/22 06:52:54;;;;;;;42.47;22.63;;;4.10;72.90;;;;;;4967571;28;20031;-81
2024/03/22 06:55:20;;;;;;;32.83;20.35;;;4.10;72.80;;;;;;4992971;28;20064;-79
2024/03/22 06:57:47;;;;;;;31.30;19.48;;;4.20;72.50;;;;;;4994088;28;20025;-80
2024/03/22 07:00:14;;;;;;;35.28;20.52;;;4.30;72.00;;;;;;4990693;28;20395;-81
2024/03/22 07:02:43;;;;;;;35.83;20.20;;;4.30;72.00;;;;;;4987999;28;20042;-81
2024/03/22 07:05:09;;;;;;;43.47;22.25;;;4.30;72.10;;;;;;4990046;28;20034;-81
2024/03/22 07:07:36;;;;;;;40.13;21.73;;;4.40;71.80;;;;;;4991860;28;20020;-82
2024/03/22 07:10:03;;;;;;;37.57;22.60;;;4.50;71.80;;;;;;4988073;28;20026;-81
2024/03/22 07:12:28;;;;;;;38.17;23.30;;;4.70;71.70;;;;;;4976045;28;20037;-83
2024/03/22 07:14:55;;;;;;;38.10;21.33;;;4.80;71.30;;;;;;4986547;28;20472;-83
2024/03/22 07:17:24;;;;;;;37.03;20.67;;;5.00;70.90;;;;;;4998222;28;20026;-88
2024/03/22 07:19:53;;;;;;;39.55;24.02;;;5.20;70.30;;;;;;4990836;28;20073;-90
2024/03/22 07:22:20;;;;;;;43.33;24.45;;;5.30;69.90;;;;;;4994524;28;20121;-83
2024/03/22 07:24:46;;;;;;;38.10;20.45;;;5.70;70.60;;;;;;4994304;28;20033;-81
2024/03/22 07:27:12;;;;;;;31.13;19.52;;;6.90;68.80;;;;;;4993862;28;20026;-82
2024/03/22 07:29:37;;;;;;;31.60;19.48;;;8.10;64.10;;;;;;4993794;28;20025;-82
2024/03/22 07:32:03;;;;;;;30.20;20.25;;;9.10;61.70;;;;;;4993988;28;20035;-84
2024/03/22 07:34:29;;;;;;;30.50;20.83;;;10.40;59.30;;;;;;4993671;28;20118;-84
2024/03/22 07:36:55;;;;;;;29.75;16.65;;;12.00;56.70;;;;;;4993562;28;20113;-82
2024/03/22 07:39:21;;;;;;;33.45;20.58;;;13.30;52.20;;;;;;4984766;28;20045;-81
2024/03/22 07:41:47;;;;;;;44.30;21.15;;;13.70;50.80;;;;;;4986957;28;20408;-83
2024/03/22 07:44:13;;;;;;;26.42;15.90;;;15.00;49.40;;;;;;4981836;28;20113;-83
2024/03/22 07:46:39;;;;;;;20.52;14.20;;;16.00;45.80;;;;;;4998652;28;20029;-83
2024/03/22 07:49:05;;;;;;;20.60;14.90;;;15.50;44.20;;;;;;4973891;28;20034;-80
2024/03/22 07:51:31;;;;;;;27.75;14.45;;;15.20;44.10;;;;;;4989105;28;20061;-84
2024/03/22 07:53:57;;;;;;;22.70;13.50;;;16.00;44.00;;;;;;4993274;28;20510;-81
2024/03/22 07:56:34;;;;;;;22.17;10.85;;;17.50;41.60;;;;;;4994854;28;20032;-83
2024/03/22 07:59:20;;;;;;;;;;;18.00;39.00;;;;;;4990172;28;20034;-82
2024/03/22 08:01:46;;;;;;;15.67;9.57;;;18.20;39.50;;;;;;4988459;28;19914;-82
2024/03/22 08:04:12;;;;;;;20.77;9.95;;;17.80;37.10;;;;;;4988150;28;20370;-81
2024/03/22 08:06:38;;;;;;;21.30;10.77;;;17.40;37.20;;;;;;4989068;28;20069;-84
2024/03/22 08:09:04;;;;;;;13.13;9.38;;;17.70;36.60;;;;;;4992779;28;20030;-82
2024/03/22 08:11:30;;;;;;;16.33;9.75;;;17.80;36.40;;;;;;4992707;28;20029;-79
2024/03/22 08:14:02;;;;;;;18.53;9.97;;;18.30;36.10;;;;;;4994338;28;20037;-81
2024/03/22 08:16:28;;;;;;;27.85;12.00;;;19.10;35.50;;;;;;4987685;28;20042;-82
2024/03/22 08:18:54;;;;;;;16.15;11.32;;;20.30;34.50;;;;;;4988192;28;20034;-80
2024/03/22 08:21:20;;;;;;;14.82;10.02;;;19.60;33.60;;;;;;4992390;28;20045;-81
2024/03/22 08:23:46;;;;;;;12.30;10.18;;;18.30;34.00;;;;;;4992635;28;20057;-82
2024/03/22 08:26:12;;;;;;;15.85;10.00;;;17.40;35.50;;;;;;4986483;28;20357;-84
2024/03/22 08:28:38;;;;;;;25.15;11.25;;;18.20;35.40;;;;;;4993172;28;20531;-80
2024/03/22 08:31:05;;;;;;;22.17;10.52;;;19.30;34.10;;;;;;4966614;28;20045;-83
2024/03/22 08:33:30;;;;;;;28.02;11.18;;;20.30;33.10;;;;;;4976345;28;20025;-80
2024/03/22 08:35:56;;;;;;;12.02;7.63;;;21.50;31.80;;;;;;4993314;28;20444;-81
2024/03/22 08:38:23;;;;;;;14.07;8.25;;;21.10;30.80;;;;;;4993114;28;20023;-81
2024/03/22 08:40:50;;;;;;;14.38;8.88;;;19.50;31.30;;;;;;4999986;28;20034;-82
2024/03/22 08:43:16;;;;;;;16.80;9.23;;;18.20;32.50;;;;;;4997422;28;20041;-82
2024/03/22 08:45:42;;;;;;;17.27;9.32;;;17.70;33.60;;;;;;4992857;28;20022;-81
2024/03/22 08:48:08;;;;;;;17.33;10.50;;;19.00;33.50;;;;;;4990713;28;20105;-82
2024/03/22 08:50:34;;;;;;;17.95;10.10;;;19.50;32.80;;;;;;4986600;28;20127;-81
2024/03/22 08:53:03;;;;;;;12.93;9.80;;;20.80;31.80;;;;;;4987773;28;20034;-78
2024/03/22 08:55:29;;;;;;;16.50;10.30;;;21.00;31.30;;;;;;4992248;28;20023;-80
2024/03/22 08:57:54;;;;;;;19.55;10.10;;;20.90;31.10;;;;;;4974877;28;20034;-81
2024/03/22 09:00:20;;;;;;;25.15;11.25;;;20.20;31.00;;;;;;4974099;28;20042;-81
2024/03/22 09:02:47;;;;;;;19.10;10.18;;;19.80;32.20;;;;;;4992095;28;20487;-81
2024/03/22 09:05:13;;;;;;;13.55;9.20;;;20.80;31.70;;;;;;4970446;28;20030;-81
2024/03/22 09:07:38;;;;;;;21.00;10.38;;;21.60;30.30;;;;;;4990831;28;20372;-82
2024/03/22 09:10:06;;;;;;;12.57;8.43;;;22.50;30.00;;;;;;4986181;28;20030;-83
2024/03/22 09:12:34;;;;;;;16.85;9.20;;;21.00;29.70;;;;;;4992054;28;20380;-83
2024/03/22 09:15:01;;;;;;;12.93;8.52;;;18.50;31.40;;;;;;4992055;28;20719;-80
2024/03/22 09:17:27;;;;;;;17.98;9.95;;;17.10;32.90;;;;;;4991945;28;20037;-80
2024/03/22 09:19:53;;;;;;;13.27;7.78;;;17.90;33.10;;;;;;4992013;28;20022;-80
2024/03/22 09:22:19;;;;;;;11.13;7.32;;;18.70;31.40;;;;;;4991863;28;20137;-81
2024/03/22 09:24:44;;;;;;;15.15;7.72;;;17.80;31.60;;;;;;4987724;28;20034;-82
2024/03/22 09:27:10;;;;;;;14.63;8.05;;;17.40;32.20;;;;;;4992180;28;20427;-82
2024/03/22 09:29:38;;;;;;;11.50;7.93;;;18.00;31.50;;;;;;4992072;28;20090;-82
2024/03/22 09:32:04;;;;;;;14.77;8.27;;;19.00;30.30;;;;;;4991806;28;20507;-83
2024/03/22 09:34:31;;;;;;;14.13;8.45;;;;;;;;;;4991925;28;20026;-81
2024/03/22 09:36:57;;;;;;;17.13;7.53;;;21.20;29.10;;;;;;4984613;28;20041;-81
2024/03/22 09:39:23;;;;;;;15.52;8.32;;;22.30;28.50;;;;;;4985264;28;20053;-81
2024/03/22 09:41:51;;;;;;;10.90;8.70;;;22.50;28.20;;;;;;4981963;28;20499;-81
2024/03/22 09:44:22;;;;;;;14.02;8.07;;;22.80;28.20;;;;;;4991790;28;20057;-80
2024/03/22 09:46:50;;;;;;;14.50;7.88;;;23.70;28.00;;;;;;4992129;28;20097;-81
2024/03/22 09:49:16;;;;;;;14.15;8.25;;;23.70;27.60;;;;;;4975386;28;20538;-82
2024/03/22 09:51:43;;;;;;;11.67;7.47;;;23.90;27.70;;;;;;4993283;28;20027;-79
2024/03/22 09:54:10;;;;;;;16.95;8.57;;;24.70;27.20;;;;;;4974780;28;20034;-81
2024/03/22 09:56:39;;;;;;;15.40;9.90;;;24.30;27.50;;;;;;4992803;28;20380;-80
2024/03/22 09:59:06;;;;;;;14.70;8.70;;;24.60;27.60;;;;;;4992159;28;20116;-79
2024/03/22 10:01:34;;;;;;;15.38;9.30;;;25.10;27.40;;;;;;4992263;28;20543;-80
2024/03/22 10:04:00;;;;;;;17.80;10.77;;;25.20;27.40;;;;;;4961122;28;20061;-80
2024/03/22 10:06:26;;;;;;;15.82;9.25;;;25.50;27.40;;;;;;4991654;28;20502;-83
2024/03/22 10:08:52;;;;;;;16.63;9.88;;;24.40;27.10;;;;;;4992215;28;20019;-83
2024/03/22 10:11:18;;;;;;;17.58;8.55;;;24.20;27.70;;;;;;4991717;28;20026;-81
2024/03/22 10:13:44;;;;;;;17.08;9.18;;;24.30;28.00;;;;;;4991822;28;20448;-81
2024/03/22 10:16:10;;;;;;;20.13;8.70;;;24.60;27.80;;;;;;4961149;28;20058;-83
2024/03/22 10:18:36;;;;;;;12.85;8.43;;;24.10;27.90;;;;;;4979481;28;20038;-80
2024/03/22 10:21:05;;;;;;;13.23;9.43;;;24.40;28.10;;;;;;4996703;28;20026;-81
2024/03/22 10:23:32;;;;;;;19.38;10.05;;;25.00;27.60;;;;;;4995226;28;20046;-82
2024/03/22 10:25:58;;;;;;;17.83;9.02;;;24.60;28.00;;;;;;4993290;28;20053;-81
2024/03/22 10:28:28;;;;;;;16.00;9.38;;;23.10;27.80;;;;;;4964677;28;20046;-79
2024/03/22 10:30:54;;;;;;;13.77;10.25;;;20.80;29.00;;;;;;4974164;28;20076;-82
2024/03/22 10:33:24;;;;;;;15.13;9.60;;;18.80;31.00;;;;;;4991481;28;20430;-79
2024/03/22 10:35:56;;;;;;;13.63;9.50;;;17.40;32.20;;;;;;4993277;28;20030;-81
2024/03/22 10:38:22;;;;;;;20.95;9.68;;;16.00;33.80;;;;;;4994654;28;20109;-78
2024/03/22 10:40:48;;;;;;;17.98;8.88;;;15.20;34.90;;;;;;4994195;28;20571;-80
2024/03/22 10:43:15;;;;;;;20.00;10.20;;;14.60;35.50;;;;;;4976964;28;20595;-80
2024/03/22 10:45:42;;;;;;;19.48;10.43;;;14.10;36.50;;;;;;4993736;28;20405;-80
2024/03/22 10:48:11;;;;;;;18.52;9.00;;;13.70;37.20;;;;;;4993646;28;20033;-79
2024/03/22 10:50:42;;;;;;;14.15;8.98;;;13.30;38.00;;;;;;4994820;28;20038;-79
2024/03/22 10:53:19;;;;;;;16.60;9.45;;;12.60;38.80;;;;;;4980565;28;20023;-80
2024/03/22 10:55:47;;;;;;;20.77;9.80;;;12.10;39.40;;;;;;4969153;28;20034;-80
2024/03/22 10:58:21;;;;;;;12.80;8.95;;;11.80;40.30;;;;;;4988828;28;20268;-81
2024/03/22 11:00:51;;;;;;;12.60;8.52;;;11.70;40.30;;;;;;4994411;28;20113;-80
2024/03/22 11:03:20;;;;;;;16.60;10.30;;;11.60;40.40;;;;;;4971052;28;20042;-81
2024/03/22 11:05:46;;;;;;;17.13;10.32;;;11.40;41.10;;;;;;4986035;28;20029;-81
2024/03/22 11:08:13;;;;;;;20.65;9.07;;;11.30;41.40;;;;;;4994521;28;20055;-81
2024/03/22 11:10:39;;;;;;;14.95;8.30;;;11.30;41.80;;;;;;4993775;28;20507;-80
2024/03/22 11:13:07;;;;;;;19.98;9.13;;;11.30;41.90;;;;;;4991731;28;20060;-80
2024/03/22 11:15:33;;;;;;;19.48;8.95;;;11.30;42.00;;;;;;4991206;28;20026;-81
2024/03/22 11:17:59;;;;;;;14.00;9.00;;;11.30;42.20;;;;;;4993979;28;20455;-80
2024/03/22 11:20:26;;;;;;;13.20;8.13;;;11.30;42.90;;;;;;4993764;28;20476;-81
2024/03/22 11:22:52;;;;;;;17.05;8.88;;;11.30;42.40;;;;;;4993486;28;20042;-81
2024/03/22 11:25:19;;;;;;;14.10;10.30;;;11.20;42.70;;;;;;4993654;28;20380;-81
2024/03/22 11:27:48;;;;;;;24.63;8.97;;;11.00;43.40;;;;;;4992837;28;20443;-81
2024/03/22 11:30:16;;;;;;;19.92;10.43;;;10.90;43.70;;;;;;4993574;28;20248;-80
2024/03/22 11:32:45;;;;;;;21.77;8.45;;;10.90;44.30;;;;;;4993588;28;20444;-80
2024/03/22 11:35:12;;;;;;;23.83;11.35;;;10.70;44.50;;;;;;4993477;28;20080;-80
2024/03/22 11:37:41;;;;;;;13.55;8.32;;;10.60;44.80;;;;;;4993360;28;20025;-79
2024/03/22 11:40:12;;;;;;;17.42;7.45;;;10.70;44.60;;;;;;4970453;28;20056;-80
2024/03/22 11:42:43;;;;;;;18.35;9.35;;;10.50;45.50;;;;;;4993243;28;20046;-79
2024/03/22 11:45:15;;;;;;;16.92;8.43;;;10.20;46.20;;;;;;4993219;28;20035;-78
2024/03/22 11:47:40;;;;;;;12.88;9.02;;;10.20;46.10;;;;;;4989415;28;20026;-79
2024/03/22 11:50:07;;;;;;;19.27;10.00;;;10.30;46.10;;;;;;4993351;28;20018;-80
2024/03/22 11:52:34;;;;;;;21.27;10.60;;;10.30;46.70;;;;;;4994526;28;20527;-79
2024/03/22 11:55:04;;;;;;;17.73;8.73;;;10.30;46.80;;;;;;4998228;28;20035;-80
2024/03/22 11:57:33;;;;;;;23.95;11.07;;;10.40;46.80;;;;;;4993320;28;20056;-78
2024/03/22 12:00:00;;;;;;;15.40;9.10;;;10.40;47.10;;;;;;4981376;28;20022;-78
2024/03/22 12:02:26;;;;;;;17.25;8.75;;;10.40;46.70;;;;;;4993357;28;20062;-80
2024/03/22 12:04:52;;;;;;;19.05;9.52;;;10.40;47.00;;;;;;4975666;28;20108;-81
2024/03/22 12:07:18;;;;;;;16.80;8.40;;;10.40;47.20;;;;;;4993129;28;20469;-79
2024/03/22 12:09:47;;;;;;;14.02;8.88;;;10.40;47.30;;;;;;4993007;28;20128;-80
2024/03/22 12:12:13;;;;;;;15.18;8.05;;;10.30;47.60;;;;;;4975563;28;20029;-79
2024/03/22 12:14:40;;;;;;;16.48;9.20;;;10.20;47.80;;;;;;4975491;28;20037;-80
2024/03/22 12:17:06;;;;;;;15.50;9.37;;;10.20;48.00;;;;;;4993324;28;20483;-81
2024/03/22 12:19:32;;;;;;;9.40;6.82;;;10.30;47.90;;;;;;4993428;28;20380;-80
2024/03/22 12:22:02;;;;;;;16.33;8.93;;;10.30;47.70;;;;;;4992845;28;20486;-78
2024/03/22 12:24:28;;;;;;;11.18;7.13;;;10.30;48.00;;;;;;4976105;28;20038;-80
2024/03/22 12:26:54;;;;;;;11.85;8.65;;;10.40;47.90;;;;;;4979986;28;20049;-79
2024/03/22 12:29:20;;;;;;;13.40;7.28;;;10.60;47.20;;;;;;4994549;28;20053;-80
2024/03/22 12:31:46;;;;;;;18.77;8.52;;;10.90;46.40;;;;;;4987272;28;20022;-79
2024/03/22 12:34:12;;;;;;;14.73;8.63;;;11.00;46.30;;;;;;4992442;28;20045;-79
2024/03/22 12:36:38;;;;;;;12.10;7.07;;;11.30;46.20;;;;;;4989411;28;20038;-80